createdAt,value
2019-06-07T09:38:24.733Z,13.90
2019-06-07T09:39:16.050Z,15.10
2019-06-07T09:40:38.912Z,14.60
2019-06-07T09:41:47.578Z,14.20
2019-06-07T09:42:39.929Z,14.00
2019-06-07T09:44:05.327Z,13.30
2019-06-07T09:44:39.934Z,13.70
2019-06-07T09:45:38.981Z,13.70
2019-06-07T09:46:38.993Z,13.00
2019-06-07T09:47:38.972Z,12.90
2019-06-07T09:49:39.965Z,12.40
2019-06-07T09:50:38.984Z,12.60
2019-06-07T09:51:38.989Z,12.20
2019-06-07T09:52:56.958Z,12.10
2019-06-07T09:53:40.007Z,11.80
2019-06-07T09:55:40.005Z,12.70
2019-06-07T10:05:33.359Z,16.20
2019-06-07T10:06:33.262Z,15.60
2019-06-07T10:14:53.884Z,17.50
2019-06-07T10:16:48.040Z,17.30
2019-06-07T10:19:51.600Z,18.10
2019-06-07T10:20:51.510Z,19.60
2019-06-07T10:22:51.234Z,21.70
2019-06-07T10:23:51.245Z,21.40
2019-06-07T10:24:51.225Z,20.60
2019-06-07T10:25:51.232Z,22.30
2019-06-07T10:26:51.235Z,22.50
2019-06-07T10:27:51.232Z,22.50
2019-06-07T10:28:53.545Z,22.00
2019-06-07T10:29:51.211Z,21.70
2019-06-07T10:52:07.907Z,20.80
2019-06-07T10:53:02.375Z,19.80
2019-06-07T10:53:42.839Z,20.40
2019-06-07T10:54:42.817Z,20.60
2019-06-07T10:55:42.815Z,20.30
2019-06-07T10:56:42.804Z,21.70
2019-06-07T10:57:42.784Z,21.60
2019-06-07T10:58:42.790Z,20.60
2019-06-07T10:59:42.768Z,20.80
2019-06-07T11:00:42.816Z,20.30
2019-06-07T11:01:42.748Z,20.80
2019-06-07T11:02:42.726Z,20.50
2019-06-07T11:03:42.725Z,19.60
2019-06-07T11:04:42.714Z,20.00
2019-06-07T11:05:42.705Z,19.80
2019-06-07T11:06:42.692Z,20.00
2019-06-07T11:07:42.677Z,19.60
2019-06-07T11:08:42.669Z,21.50
2019-06-07T11:09:42.645Z,20.40
2019-06-07T11:10:42.636Z,19.90
2019-06-07T11:11:42.624Z,20.00
2019-06-07T11:12:42.612Z,19.60
2019-06-07T11:13:42.615Z,19.50
2019-06-07T11:14:42.599Z,19.10
2019-06-07T11:15:42.589Z,19.00
2019-06-07T11:16:42.573Z,20.40
2019-06-07T11:17:42.555Z,19.10
2019-06-07T11:18:42.544Z,19.00
2019-06-07T11:19:42.535Z,19.60
2019-06-07T11:20:42.550Z,19.50
2019-06-07T11:21:42.549Z,20.10
2019-06-07T11:22:42.510Z,19.80
2019-06-07T11:23:42.500Z,19.20
2019-06-07T11:24:42.481Z,18.80
2019-06-07T11:25:42.468Z,19.00
2019-06-07T11:26:42.474Z,18.30
2019-06-07T11:27:42.443Z,17.70
2019-06-07T11:28:42.447Z,17.90
2019-06-07T11:29:42.418Z,16.80
2019-06-07T11:30:42.409Z,15.80
2019-06-07T11:31:42.395Z,16.60
2019-06-07T11:32:42.389Z,16.20
2019-06-07T11:33:42.374Z,16.30
2019-06-07T11:34:42.380Z,15.40
2019-06-07T11:35:42.350Z,15.00
2019-06-07T11:36:42.350Z,15.10
2019-06-07T11:37:42.342Z,15.00
2019-06-07T11:38:42.347Z,15.00
2019-06-07T11:39:42.316Z,14.60
2019-06-07T11:40:42.321Z,14.10
2019-06-07T11:41:42.298Z,15.00
2019-06-07T11:42:42.312Z,14.50
2019-06-07T11:43:42.262Z,15.10
2019-06-07T11:44:35.189Z,15.10
2019-06-07T11:45:35.181Z,15.70
2019-06-07T11:46:35.173Z,15.20
2019-06-07T11:47:35.174Z,15.30
2019-06-07T15:43:37.271Z,6
2019-06-07T15:46:31.416Z,6
2019-06-07T15:53:21.519Z,5.7
